sensor_id;sensor_type;location;lat;lon;timestamp;pressure;altitude;pressure_sealevel;temperature;humidity
20971;BME280;10644;48.834;10.088;2024-02-28T00:01:50;96574.25;;;11.27;60.35
20971;BME280;10644;48.834;10.088;2024-02-28T00:04:15;96574.44;;;11.38;60.24
20971;BME280;10644;48.834;10.088;2024-02-28T00:06:43;96562.63;;;11.36;59.88
20971;BME280;10644;48.834;10.088;2024-02-28T00:09:10;96567.22;;;11.45;60.47
20971;BME280;10644;48.834;10.088;2024-02-28T00:11:36;96561.09;;;11.47;59.89
20971;BME280;10644;48.834;10.088;2024-02-28T00:14:04;96576.84;;;11.41;60.19
20971;BME280;10644;48.834;10.088;2024-02-28T00:16:29;96579.56;;;11.24;61.07
20971;BME280;10644;48.834;10.088;2024-02-28T00:18:54;96572.25;;;11.32;60.48
20971;BME280;10644;48.834;10.088;2024-02-28T00:21:23;96566.94;;;11.35;60.21
20971;BME280;10644;48.834;10.088;2024-02-28T00:23:48;96567.69;;;11.51;60.03
20971;BME280;10644;48.834;10.088;2024-02-28T00:26:18;96557.97;;;11.42;60.39
20971;BME280;10644;48.834;10.088;2024-02-28T00:28:43;96556.69;;;11.49;59.67
20971;BME280;10644;48.834;10.088;2024-02-28T00:31:11;96559.81;;;11.40;59.88
20971;BME280;10644;48.834;10.088;2024-02-28T00:33:36;96560.38;;;11.02;61.04
20971;BME280;10644;48.834;10.088;2024-02-28T00:36:04;96559.00;;;10.96;61.41
20971;BME280;10644;48.834;10.088;2024-02-28T00:38:29;96564.44;;;11.06;60.90
20971;BME280;10644;48.834;10.088;2024-02-28T00:40:57;96569.69;;;11.18;60.69
20971;BME280;10644;48.834;10.088;2024-02-28T00:43:22;96568.69;;;11.21;60.94
20971;BME280;10644;48.834;10.088;2024-02-28T00:45:48;96556.09;;;11.16;60.84
20971;BME280;10644;48.834;10.088;2024-02-28T00:48:14;96563.44;;;11.08;60.98
20971;BME280;10644;48.834;10.088;2024-02-28T00:50:39;96570.97;;;11.25;60.79
20971;BME280;10644;48.834;10.088;2024-02-28T00:53:04;96565.75;;;11.27;60.85
20971;BME280;10644;48.834;10.088;2024-02-28T00:55:29;96565.25;;;11.06;61.22
20971;BME280;10644;48.834;10.088;2024-02-28T00:57:55;96564.78;;;11.00;61.48
20971;BME280;10644;48.834;10.088;2024-02-28T01:00:20;96561.13;;;11.04;61.50
20971;BME280;10644;48.834;10.088;2024-02-28T01:02:46;96563.94;;;10.85;61.57
20971;BME280;10644;48.834;10.088;2024-02-28T01:05:11;96560.06;;;10.78;61.60
20971;BME280;10644;48.834;10.088;2024-02-28T01:07:39;96567.63;;;10.95;61.26
20971;BME280;10644;48.834;10.088;2024-02-28T01:10:04;96563.16;;;11.13;61.40
20971;BME280;10644;48.834;10.088;2024-02-28T01:12:30;96579.78;;;11.35;60.65
20971;BME280;10644;48.834;10.088;2024-02-28T01:14:55;96564.75;;;11.43;60.21
20971;BME280;10644;48.834;10.088;2024-02-28T01:17:20;96564.31;;;11.51;60.00
20971;BME280;10644;48.834;10.088;2024-02-28T01:19:47;96560.56;;;11.56;60.05
20971;BME280;10644;48.834;10.088;2024-02-28T01:22:12;96561.47;;;11.41;59.98
20971;BME280;10644;48.834;10.088;2024-02-28T01:24:37;96563.28;;;11.25;60.01
20971;BME280;10644;48.834;10.088;2024-02-28T01:27:03;96558.19;;;10.96;61.51
20971;BME280;10644;48.834;10.088;2024-02-28T01:29:28;96564.34;;;11.07;61.06
20971;BME280;10644;48.834;10.088;2024-02-28T01:31:55;96568.63;;;10.93;61.57
20971;BME280;10644;48.834;10.088;2024-02-28T01:34:20;96566.91;;;11.07;61.16
20971;BME280;10644;48.834;10.088;2024-02-28T01:36:46;96565.81;;;11.11;60.82
20971;BME280;10644;48.834;10.088;2024-02-28T01:39:13;96572.47;;;11.14;60.62
20971;BME280;10644;48.834;10.088;2024-02-28T01:41:38;96571.41;;;11.18;60.57
20971;BME280;10644;48.834;10.088;2024-02-28T01:44:04;96576.72;;;11.29;60.43
20971;BME280;10644;48.834;10.088;2024-02-28T01:46:29;96570.59;;;11.31;59.81
20971;BME280;10644;48.834;10.088;2024-02-28T01:48:56;96583.44;;;11.45;59.99
20971;BME280;10644;48.834;10.088;2024-02-28T01:51:27;96574.66;;;11.35;59.85
20971;BME280;10644;48.834;10.088;2024-02-28T01:53:53;96586.91;;;11.44;59.45
20971;BME280;10644;48.834;10.088;2024-02-28T01:56:20;96585.63;;;11.37;59.22
20971;BME280;10644;48.834;10.088;2024-02-28T01:58:46;96590.00;;;11.21;59.87
20971;BME280;10644;48.834;10.088;2024-02-28T02:01:14;96604.94;;;11.29;59.87
20971;BME280;10644;48.834;10.088;2024-02-28T02:03:40;96607.56;;;11.27;59.75
20971;BME280;10644;48.834;10.088;2024-02-28T02:06:05;96600.59;;;11.15;59.76
20971;BME280;10644;48.834;10.088;2024-02-28T02:08:31;96601.44;;;11.16;60.00
20971;BME280;10644;48.834;10.088;2024-02-28T02:11:00;96613.69;;;11.11;60.05
20971;BME280;10644;48.834;10.088;2024-02-28T02:13:25;96617.53;;;10.88;60.83
20971;BME280;10644;48.834;10.088;2024-02-28T02:15:51;96622.47;;;11.07;60.27
20971;BME280;10644;48.834;10.088;2024-02-28T02:18:18;96623.59;;;11.17;59.87
20971;BME280;10644;48.834;10.088;2024-02-28T02:20:46;96627.09;;;11.30;59.68
20971;BME280;10644;48.834;10.088;2024-02-28T02:23:14;96627.88;;;11.16;60.33
20971;BME280;10644;48.834;10.088;2024-02-28T02:25:47;96640.75;;;11.30;59.76
20971;BME280;10644;48.834;10.088;2024-02-28T02:28:13;96635.84;;;11.12;60.25
20971;BME280;10644;48.834;10.088;2024-02-28T02:30:41;96637.22;;;10.88;61.04
20971;BME280;10644;48.834;10.088;2024-02-28T02:33:10;96643.69;;;10.79;61.19
20971;BME280;10644;48.834;10.088;2024-02-28T02:35:38;96646.50;;;10.59;61.29
20971;BME280;10644;48.834;10.088;2024-02-28T02:38:03;96650.63;;;10.62;61.68
20971;BME280;10644;48.834;10.088;2024-02-28T02:40:31;96658.09;;;10.66;61.72
20971;BME280;10644;48.834;10.088;2024-02-28T02:42:57;96651.94;;;10.69;61.64
20971;BME280;10644;48.834;10.088;2024-02-28T02:45:24;96656.09;;;10.56;61.90
20971;BME280;10644;48.834;10.088;2024-02-28T02:47:50;96666.66;;;10.65;61.96
20971;BME280;10644;48.834;10.088;2024-02-28T02:50:15;96662.78;;;10.74;61.22
20971;BME280;10644;48.834;10.088;2024-02-28T02:52:41;96657.88;;;10.85;61.19
20971;BME280;10644;48.834;10.088;2024-02-28T02:55:06;96663.66;;;10.88;60.36
20971;BME280;10644;48.834;10.088;2024-02-28T02:57:33;96660.91;;;10.77;60.98
20971;BME280;10644;48.834;10.088;2024-02-28T02:59:58;96667.97;;;10.88;60.86
20971;BME280;10644;48.834;10.088;2024-02-28T03:02:27;96663.66;;;10.88;60.91
20971;BME280;10644;48.834;10.088;2024-02-28T03:04:53;96667.72;;;10.92;60.51
20971;BME280;10644;48.834;10.088;2024-02-28T03:07:18;96676.16;;;10.79;61.51
20971;BME280;10644;48.834;10.088;2024-02-28T03:09:43;96682.03;;;10.65;61.42
20971;BME280;10644;48.834;10.088;2024-02-28T03:12:09;96674.47;;;10.64;61.41
20971;BME280;10644;48.834;10.088;2024-02-28T03:14:37;96678.41;;;10.69;61.28
20971;BME280;10644;48.834;10.088;2024-02-28T03:17:02;96677.44;;;10.56;61.81
20971;BME280;10644;48.834;10.088;2024-02-28T03:19:28;96675.09;;;10.36;62.26
20971;BME280;10644;48.834;10.088;2024-02-28T03:21:54;96685.13;;;10.41;62.14
20971;BME280;10644;48.834;10.088;2024-02-28T03:24:19;96691.47;;;10.49;62.35
20971;BME280;10644;48.834;10.088;2024-02-28T03:26:45;96692.78;;;10.56;61.91
20971;BME280;10644;48.834;10.088;2024-02-28T03:29:10;96697.59;;;10.62;61.84
20971;BME280;10644;48.834;10.088;2024-02-28T03:31:35;96695.03;;;10.62;61.78
20971;BME280;10644;48.834;10.088;2024-02-28T03:34:01;96701.06;;;10.61;61.67
20971;BME280;10644;48.834;10.088;2024-02-28T03:36:28;96705.81;;;10.52;62.15
20971;BME280;10644;48.834;10.088;2024-02-28T03:38:54;96697.31;;;10.51;61.51
20971;BME280;10644;48.834;10.088;2024-02-28T03:41:19;96709.16;;;10.54;62.03
20971;BME280;10644;48.834;10.088;2024-02-28T03:43:44;96708.81;;;10.60;61.42
20971;BME280;10644;48.834;10.088;2024-02-28T03:46:10;96724.44;;;10.71;61.53
20971;BME280;10644;48.834;10.088;2024-02-28T03:48:35;96721.78;;;10.72;61.37
20971;BME280;10644;48.834;10.088;2024-02-28T03:51:00;96725.81;;;10.45;61.95
20971;BME280;10644;48.834;10.088;2024-02-28T03:53:25;96728.78;;;10.53;62.09
20971;BME280;10644;48.834;10.088;2024-02-28T03:55:51;96731.94;;;10.58;61.40
20971;BME280;10644;48.834;10.088;2024-02-28T03:58:19;96727.28;;;10.34;62.51
20971;BME280;10644;48.834;10.088;2024-02-28T04:00:44;96731.59;;;10.33;62.67
20971;BME280;10644;48.834;10.088;2024-02-28T04:03:11;96733.25;;;10.34;63.14
20971;BME280;10644;48.834;10.088;2024-02-28T04:05:36;96723.91;;;10.33;62.28
20971;BME280;10644;48.834;10.088;2024-02-28T04:08:01;96737.50;;;10.18;62.79
20971;BME280;10644;48.834;10.088;2024-02-28T04:10:29;96735.84;;;10.17;63.04
20971;BME280;10644;48.834;10.088;2024-02-28T04:12:54;96733.00;;;10.06;63.48
20971;BME280;10644;48.834;10.088;2024-02-28T04:15:20;96739.03;;;9.88;64.13
20971;BME280;10644;48.834;10.088;2024-02-28T04:17:47;96730.13;;;9.95;63.96
20971;BME280;10644;48.834;10.088;2024-02-28T04:20:13;96739.53;;;10.12;63.45
20971;BME280;10644;48.834;10.088;2024-02-28T04:22:39;96733.72;;;10.25;62.77
20971;BME280;10644;48.834;10.088;2024-02-28T04:25:06;96726.63;;;10.30;63.17
20971;BME280;10644;48.834;10.088;2024-02-28T04:27:33;96724.59;;;10.04;63.32
20971;BME280;10644;48.834;10.088;2024-02-28T04:29:58;96732.53;;;10.15;63.78
20971;BME280;10644;48.834;10.088;2024-02-28T04:32:23;96731.78;;;10.13;63.68
20971;BME280;10644;48.834;10.088;2024-02-28T04:34:51;96726.34;;;10.02;63.69
20971;BME280;10644;48.834;10.088;2024-02-28T04:37:20;96729.53;;;10.07;63.36
20971;BME280;10644;48.834;10.088;2024-02-28T04:39:46;96726.13;;;10.24;63.14
20971;BME280;10644;48.834;10.088;2024-02-28T04:42:12;96741.06;;;10.31;62.82
20971;BME280;10644;48.834;10.088;2024-02-28T04:44:38;96733.56;;;10.28;62.83
20971;BME280;10644;48.834;10.088;2024-02-28T04:47:03;96740.97;;;10.00;63.84
20971;BME280;10644;48.834;10.088;2024-02-28T04:49:29;96742.19;;;9.93;63.98
20971;BME280;10644;48.834;10.088;2024-02-28T04:51:55;96745.81;;;10.06;63.96
20971;BME280;10644;48.834;10.088;2024-02-28T04:54:20;96745.06;;;10.04;63.44
20971;BME280;10644;48.834;10.088;2024-02-28T04:56:45;96747.72;;;10.18;62.95
20971;BME280;10644;48.834;10.088;2024-02-28T04:59:13;96749.56;;;10.16;63.03
20971;BME280;10644;48.834;10.088;2024-02-28T05:01:39;96739.63;;;10.10;63.47
20971;BME280;10644;48.834;10.088;2024-02-28T05:04:07;96749.88;;;10.10;63.55
20971;BME280;10644;48.834;10.088;2024-02-28T05:06:33;96757.13;;;10.18;63.36
20971;BME280;10644;48.834;10.088;2024-02-28T05:08:58;96762.56;;;10.12;63.25
20971;BME280;10644;48.834;10.088;2024-02-28T05:11:26;96758.94;;;10.16;62.96
20971;BME280;10644;48.834;10.088;2024-02-28T05:13:51;96764.75;;;9.85;64.04
20971;BME280;10644;48.834;10.088;2024-02-28T05:16:17;96763.53;;;10.09;63.67
20971;BME280;10644;48.834;10.088;2024-02-28T05:18:44;96769.22;;;10.31;63.17
20971;BME280;10644;48.834;10.088;2024-02-28T05:21:10;96767.28;;;10.19;63.02
20971;BME280;10644;48.834;10.088;2024-02-28T05:23:38;96771.47;;;10.05;63.79
20971;BME280;10644;48.834;10.088;2024-02-28T05:26:04;96780.41;;;9.96;63.54
20971;BME280;10644;48.834;10.088;2024-02-28T05:28:31;96778.50;;;10.17;63.24
20971;BME280;10644;48.834;10.088;2024-02-28T05:30:58;96787.16;;;10.14;63.65
20971;BME280;10644;48.834;10.088;2024-02-28T05:33:25;96789.59;;;10.17;62.92
20971;BME280;10644;48.834;10.088;2024-02-28T05:35:50;96788.81;;;10.15;63.67
20971;BME280;10644;48.834;10.088;2024-02-28T05:38:16;96790.19;;;10.22;62.95
20971;BME280;10644;48.834;10.088;2024-02-28T05:40:41;96788.22;;;10.27;63.15
20971;BME280;10644;48.834;10.088;2024-02-28T05:43:07;96789.34;;;10.22;63.24
20971;BME280;10644;48.834;10.088;2024-02-28T05:45:32;96793.19;;;10.13;63.75
20971;BME280;10644;48.834;10.088;2024-02-28T05:47:58;96792.47;;;10.11;63.58
20971;BME280;10644;48.834;10.088;2024-02-28T05:50:24;96795.94;;;10.10;63.51
20971;BME280;10644;48.834;10.088;2024-02-28T05:52:50;96797.09;;;10.03;63.31
20971;BME280;10644;48.834;10.088;2024-02-28T05:55:15;96795.59;;;9.99;63.48
20971;BME280;10644;48.834;10.088;2024-02-28T05:57:40;96799.66;;;10.03;63.83
20971;BME280;10644;48.834;10.088;2024-02-28T06:00:06;96798.63;;;9.90;63.92
20971;BME280;10644;48.834;10.088;2024-02-28T06:02:38;96812.91;;;9.94;64.24
20971;BME280;10644;48.834;10.088;2024-02-28T06:05:04;96826.31;;;9.82;64.65
20971;BME280;10644;48.834;10.088;2024-02-28T06:07:32;96817.13;;;9.95;64.31
20971;BME280;10644;48.834;10.088;2024-02-28T06:09:57;96833.41;;;10.11;63.90
20971;BME280;10644;48.834;10.088;2024-02-28T06:12:22;96832.06;;;10.04;64.39
20971;BME280;10644;48.834;10.088;2024-02-28T06:14:49;96841.25;;;9.90;64.48
20971;BME280;10644;48.834;10.088;2024-02-28T06:17:14;96841.50;;;10.02;65.16
20971;BME280;10644;48.834;10.088;2024-02-28T06:19:39;96844.84;;;10.21;64.09
20971;BME280;10644;48.834;10.088;2024-02-28T06:22:04;96846.50;;;10.22;64.43
20971;BME280;10644;48.834;10.088;2024-02-28T06:24:33;96848.50;;;10.33;63.56
20971;BME280;10644;48.834;10.088;2024-02-28T06:26:59;96843.75;;;10.42;62.97
20971;BME280;10644;48.834;10.088;2024-02-28T06:29:24;96856.94;;;10.35;62.47
20971;BME280;10644;48.834;10.088;2024-02-28T06:31:50;96856.94;;;10.35;63.22
20971;BME280;10644;48.834;10.088;2024-02-28T06:34:22;96861.06;;;10.37;63.21
20971;BME280;10644;48.834;10.088;2024-02-28T06:36:49;96877.31;;;10.53;63.21
20971;BME280;10644;48.834;10.088;2024-02-28T06:39:15;96875.66;;;10.52;62.77
20971;BME280;10644;48.834;10.088;2024-02-28T06:41:40;96876.56;;;10.68;62.70
20971;BME280;10644;48.834;10.088;2024-02-28T06:44:05;96879.72;;;10.73;62.37
20971;BME280;10644;48.834;10.088;2024-02-28T06:46:32;96877.25;;;10.87;61.47
20971;BME280;10644;48.834;10.088;2024-02-28T06:48:58;96891.41;;;10.94;61.33
20971;BME280;10644;48.834;10.088;2024-02-28T06:51:23;96887.66;;;10.84;61.73
20971;BME280;10644;48.834;10.088;2024-02-28T06:53:48;96887.50;;;10.87;61.87
20971;BME280;10644;48.834;10.088;2024-02-28T06:56:14;96885.44;;;10.94;61.49
20971;BME280;10644;48.834;10.088;2024-02-28T06:58:39;96890.81;;;10.89;61.77
20971;BME280;10644;48.834;10.088;2024-02-28T07:01:04;96900.94;;;10.75;61.77
20971;BME280;10644;48.834;10.088;2024-02-28T07:03:30;96888.78;;;10.46;62.55
20971;BME280;10644;48.834;10.088;2024-02-28T07:05:55;96898.28;;;10.44;61.90
20971;BME280;10644;48.834;10.088;2024-02-28T07:08:21;96908.00;;;10.38;65.23
20971;BME280;10644;48.834;10.088;2024-02-28T07:10:46;96900.97;;;10.58;65.40
20971;BME280;10644;48.834;10.088;2024-02-28T07:13:14;96901.41;;;10.83;62.70
20971;BME280;10644;48.834;10.088;2024-02-28T07:15:40;96895.41;;;10.67;61.85
20971;BME280;10644;48.834;10.088;2024-02-28T07:18:09;96911.47;;;10.37;62.07
20971;BME280;10644;48.834;10.088;2024-02-28T07:20:34;96916.88;;;10.31;62.54
20971;BME280;10644;48.834;10.088;2024-02-28T07:22:59;96915.75;;;10.19;62.45
20971;BME280;10644;48.834;10.088;2024-02-28T07:25:25;96922.38;;;10.23;62.24
20971;BME280;10644;48.834;10.088;2024-02-28T07:27:51;96926.47;;;9.92;63.37
20971;BME280;10644;48.834;10.088;2024-02-28T07:30:18;96924.88;;;9.89;63.23
20971;BME280;10644;48.834;10.088;2024-02-28T07:32:44;96930.16;;;10.03;62.71
20971;BME280;10644;48.834;10.088;2024-02-28T07:35:12;96946.31;;;10.05;62.88
20971;BME280;10644;48.834;10.088;2024-02-28T07:37:37;96946.69;;;9.96;62.53
20971;BME280;10644;48.834;10.088;2024-02-28T07:40:03;96937.44;;;9.94;62.92
20971;BME280;10644;48.834;10.088;2024-02-28T07:42:28;96938.47;;;9.90;63.17
20971;BME280;10644;48.834;10.088;2024-02-28T07:44:53;96936.00;;;9.88;62.97
20971;BME280;10644;48.834;10.088;2024-02-28T07:47:22;96937.03;;;9.84;63.21
20971;BME280;10644;48.834;10.088;2024-02-28T07:49:48;96944.16;;;9.78;64.12
20971;BME280;10644;48.834;10.088;2024-02-28T07:52:13;96942.97;;;9.68;64.30
20971;BME280;10644;48.834;10.088;2024-02-28T07:54:41;96943.16;;;9.63;64.20
20971;BME280;10644;48.834;10.088;2024-02-28T07:57:08;96943.50;;;9.56;64.46
20971;BME280;10644;48.834;10.088;2024-02-28T07:59:41;96946.03;;;9.74;63.99
20971;BME280;10644;48.834;10.088;2024-02-28T08:02:07;96952.50;;;10.00;63.29
20971;BME280;10644;48.834;10.088;2024-02-28T08:04:32;96946.81;;;10.12;62.93
20971;BME280;10644;48.834;10.088;2024-02-28T08:06:59;96950.22;;;10.12;62.69
20971;BME280;10644;48.834;10.088;2024-02-28T08:09:28;96954.03;;;10.04;62.78
20971;BME280;10644;48.834;10.088;2024-02-28T08:11:53;96955.56;;;9.89;63.78
20971;BME280;10644;48.834;10.088;2024-02-28T08:14:18;96945.63;;;9.83;63.74
20971;BME280;10644;48.834;10.088;2024-02-28T08:16:46;96961.75;;;10.02;63.04
20971;BME280;10644;48.834;10.088;2024-02-28T08:19:12;96955.13;;;9.98;63.25
20971;BME280;10644;48.834;10.088;2024-02-28T08:21:40;96955.72;;;10.03;63.06
20971;BME280;10644;48.834;10.088;2024-02-28T08:24:05;96964.38;;;10.19;63.29
20971;BME280;10644;48.834;10.088;2024-02-28T08:26:33;96962.84;;;10.15;62.57
20971;BME280;10644;48.834;10.088;2024-02-28T08:28:58;96966.47;;;10.11;62.56
20971;BME280;10644;48.834;10.088;2024-02-28T08:31:24;96965.22;;;10.20;62.48
20971;BME280;10644;48.834;10.088;2024-02-28T08:33:49;96966.19;;;10.17;62.54
20971;BME280;10644;48.834;10.088;2024-02-28T08:36:14;96966.13;;;10.00;63.49
20971;BME280;10644;48.834;10.088;2024-02-28T08:38:44;96972.13;;;9.82;63.98
20971;BME280;10644;48.834;10.088;2024-02-28T08:41:12;96973.13;;;9.97;64.12
20971;BME280;10644;48.834;10.088;2024-02-28T08:43:39;96977.28;;;9.99;63.62
20971;BME280;10644;48.834;10.088;2024-02-28T08:46:07;96974.00;;;10.14;63.45
20971;BME280;10644;48.834;10.088;2024-02-28T08:48:33;96975.19;;;10.07;62.94
20971;BME280;10644;48.834;10.088;2024-02-28T08:50:58;96978.66;;;10.06;63.46
20971;BME280;10644;48.834;10.088;2024-02-28T08:53:24;96978.59;;;10.08;63.19
20971;BME280;10644;48.834;10.088;2024-02-28T08:55:58;96964.84;;;10.10;62.83
20971;BME280;10644;48.834;10.088;2024-02-28T08:58:24;96976.50;;;9.97;63.69
20971;BME280;10644;48.834;10.088;2024-02-28T09:00:49;96972.06;;;9.65;64.35
20971;BME280;10644;48.834;10.088;2024-02-28T09:03:22;96977.28;;;9.62;64.85
20971;BME280;10644;48.834;10.088;2024-02-28T09:05:50;96993.44;;;9.81;64.57
20971;BME280;10644;48.834;10.088;2024-02-28T09:08:16;96993.59;;;9.97;63.93
20971;BME280;10644;48.834;10.088;2024-02-28T09:10:44;96992.91;;;9.93;63.63
20971;BME280;10644;48.834;10.088;2024-02-28T09:13:16;96965.50;;;9.95;64.03
20971;BME280;10644;48.834;10.088;2024-02-28T09:15:43;96976.50;;;9.97;63.41
20971;BME280;10644;48.834;10.088;2024-02-28T09:18:11;96977.97;;;9.84;64.01
20971;BME280;10644;48.834;10.088;2024-02-28T09:20:37;96978.09;;;9.81;63.92
20971;BME280;10644;48.834;10.088;2024-02-28T09:23:03;96987.91;;;9.90;64.07
20971;BME280;10644;48.834;10.088;2024-02-28T09:25:31;96990.34;;;9.93;63.91
20971;BME280;10644;48.834;10.088;2024-02-28T09:27:57;96995.41;;;9.76;63.90
20971;BME280;10644;48.834;10.088;2024-02-28T09:30:25;96997.88;;;9.78;64.16
20971;BME280;10644;48.834;10.088;2024-02-28T09:32:50;96990.53;;;9.89;63.95
20971;BME280;10644;48.834;10.088;2024-02-28T09:35:16;96995.94;;;9.83;63.76
20971;BME280;10644;48.834;10.088;2024-02-28T09:37:41;96999.84;;;9.54;64.49
20971;BME280;10644;48.834;10.088;2024-02-28T09:40:12;97003.81;;;9.41;65.71
20971;BME280;10644;48.834;10.088;2024-02-28T09:42:40;97005.06;;;9.51;65.01
20971;BME280;10644;48.834;10.088;2024-02-28T09:45:10;96996.78;;;9.65;64.84
20971;BME280;10644;48.834;10.088;2024-02-28T09:47:39;97008.94;;;9.78;64.66
20971;BME280;10644;48.834;10.088;2024-02-28T09:50:05;97018.56;;;9.92;64.44
20971;BME280;10644;48.834;10.088;2024-02-28T09:52:31;97019.16;;;10.15;63.69
20971;BME280;10644;48.834;10.088;2024-02-28T09:54:57;97013.22;;;10.15;62.95
20971;BME280;10644;48.834;10.088;2024-02-28T09:57:26;97015.84;;;10.13;63.33
20971;BME280;10644;48.834;10.088;2024-02-28T09:59:55;97014.59;;;10.22;63.29
20971;BME280;10644;48.834;10.088;2024-02-28T10:02:23;97017.97;;;10.05;63.17
20971;BME280;10644;48.834;10.088;2024-02-28T10:04:52;97032.41;;;10.06;63.64
20971;BME280;10644;48.834;10.088;2024-02-28T10:07:17;97025.19;;;10.14;63.46
20971;BME280;10644;48.834;10.088;2024-02-28T10:09:45;97032.56;;;10.20;62.73
20971;BME280;10644;48.834;10.088;2024-02-28T10:12:14;97030.31;;;9.96;63.13
20971;BME280;10644;48.834;10.088;2024-02-28T10:14:39;97037.00;;;9.98;63.42
20971;BME280;10644;48.834;10.088;2024-02-28T10:17:05;97039.66;;;9.97;63.13
20971;BME280;10644;48.834;10.088;2024-02-28T10:19:31;97049.47;;;10.24;62.78
20971;BME280;10644;48.834;10.088;2024-02-28T10:21:56;97040.53;;;10.33;62.01
20971;BME280;10644;48.834;10.088;2024-02-28T10:24:24;97031.13;;;10.33;61.98
20971;BME280;10644;48.834;10.088;2024-02-28T10:26:49;97035.16;;;10.37;61.67
20971;BME280;10644;48.834;10.088;2024-02-28T10:29:24;97035.44;;;10.14;64.94
20971;BME280;10644;48.834;10.088;2024-02-28T10:31:51;97041.81;;;10.41;63.31
20971;BME280;10644;48.834;10.088;2024-02-28T10:34:17;97050.63;;;10.36;62.32
20971;BME280;10644;48.834;10.088;2024-02-28T10:36:46;97044.69;;;10.52;62.23
20971;BME280;10644;48.834;10.088;2024-02-28T10:39:12;97050.41;;;10.40;62.07
20971;BME280;10644;48.834;10.088;2024-02-28T10:41:38;97050.41;;;10.40;61.93
20971;BME280;10644;48.834;10.088;2024-02-28T10:44:04;97043.34;;;10.45;62.07
20971;BME280;10644;48.834;10.088;2024-02-28T10:46:31;97048.91;;;10.53;61.93
20971;BME280;10644;48.834;10.088;2024-02-28T10:48:57;97039.06;;;10.80;61.46
20971;BME280;10644;48.834;10.088;2024-02-28T10:51:24;97039.75;;;11.00;61.30
20971;BME280;10644;48.834;10.088;2024-02-28T10:54:08;97031.28;;;11.15;60.26
20971;BME280;10644;48.834;10.088;2024-02-28T10:56:46;97019.91;;;11.21;59.77
20971;BME280;10644;48.834;10.088;2024-02-28T10:59:21;97039.41;;;11.23;59.71
20971;BME280;10644;48.834;10.088;2024-02-28T11:01:51;97037.66;;;11.24;60.57
20971;BME280;10644;48.834;10.088;2024-02-28T11:04:17;97031.25;;;11.32;60.17
20971;BME280;10644;48.834;10.088;2024-02-28T11:06:49;97049.94;;;11.51;59.44
20971;BME280;10644;48.834;10.088;2024-02-28T11:09:19;97052.22;;;11.40;59.13
20971;BME280;10644;48.834;10.088;2024-02-28T11:11:48;97056.50;;;11.40;59.43
20971;BME280;10644;48.834;10.088;2024-02-28T11:14:18;97061.28;;;11.30;59.34
20971;BME280;10644;48.834;10.088;2024-02-28T11:17:05;97060.66;;;11.25;59.53
20971;BME280;10644;48.834;10.088;2024-02-28T11:19:32;97064.88;;;11.26;59.36
20971;BME280;10644;48.834;10.088;2024-02-28T11:21:59;97060.13;;;11.19;59.03
20971;BME280;10644;48.834;10.088;2024-02-28T11:24:33;97051.03;;;11.13;59.37
20971;BME280;10644;48.834;10.088;2024-02-28T11:26:58;97063.53;;;11.19;59.23
20971;BME280;10644;48.834;10.088;2024-02-28T11:29:30;97041.81;;;11.26;59.32
20971;BME280;10644;48.834;10.088;2024-02-28T11:31:55;97057.47;;;11.37;58.71
20971;BME280;10644;48.834;10.088;2024-02-28T11:34:21;97059.44;;;11.32;59.00
20971;BME280;10644;48.834;10.088;2024-02-28T11:36:48;97052.66;;;11.31;59.39
20971;BME280;10644;48.834;10.088;2024-02-28T11:39:14;97048.53;;;11.29;59.36
20971;BME280;10644;48.834;10.088;2024-02-28T11:41:39;97056.59;;;11.21;59.12
20971;BME280;10644;48.834;10.088;2024-02-28T11:44:05;97057.78;;;11.31;59.34
20971;BME280;10644;48.834;10.088;2024-02-28T11:46:31;97053.53;;;11.47;58.50
20971;BME280;10644;48.834;10.088;2024-02-28T11:48:56;97055.50;;;11.42;58.89
20971;BME280;10644;48.834;10.088;2024-02-28T11:51:22;97059.75;;;11.26;58.92
20971;BME280;10644;48.834;10.088;2024-02-28T11:53:48;97052.41;;;11.03;59.51
20971;BME280;10644;48.834;10.088;2024-02-28T11:56:14;97056.47;;;11.24;59.28
20971;BME280;10644;48.834;10.088;2024-02-28T11:59:02;97063.97;;;11.27;59.73
20971;BME280;10644;48.834;10.088;2024-02-28T12:01:47;97070.28;;;11.05;59.49
20971;BME280;10644;48.834;10.088;2024-02-28T12:04:13;97061.44;;;11.10;60.41
20971;BME280;10644;48.834;10.088;2024-02-28T12:06:41;97069.91;;;10.95;59.87
20971;BME280;10644;48.834;10.088;2024-02-28T12:09:08;97063.41;;;10.88;60.38
20971;BME280;10644;48.834;10.088;2024-02-28T12:11:37;97065.59;;;10.79;60.58
20971;BME280;10644;48.834;10.088;2024-02-28T12:14:03;97058.06;;;10.93;60.36
20971;BME280;10644;48.834;10.088;2024-02-28T12:16:30;97062.50;;;11.06;60.03
20971;BME280;10644;48.834;10.088;2024-02-28T12:18:55;97056.22;;;11.12;60.13
20971;BME280;10644;48.834;10.088;2024-02-28T12:21:21;97065.38;;;11.17;60.10
20971;BME280;10644;48.834;10.088;2024-02-28T12:23:47;97058.75;;;10.96;60.33
20971;BME280;10644;48.834;10.088;2024-02-28T12:26:17;97061.00;;;11.02;60.31
20971;BME280;10644;48.834;10.088;2024-02-28T12:28:44;97056.09;;;11.15;60.23
20971;BME280;10644;48.834;10.088;2024-02-28T12:31:09;97056.75;;;11.18;59.71
20971;BME280;10644;48.834;10.088;2024-02-28T12:33:37;97044.84;;;11.17;59.82
20971;BME280;10644;48.834;10.088;2024-02-28T12:36:02;97052.44;;;11.19;62.05
20971;BME280;10644;48.834;10.088;2024-02-28T12:38:30;97049.97;;;11.34;62.92
20971;BME280;10644;48.834;10.088;2024-02-28T12:40:56;97046.84;;;11.77;61.35
20971;BME280;10644;48.834;10.088;2024-02-28T12:43:22;97039.31;;;12.05;61.42
20971;BME280;10644;48.834;10.088;2024-02-28T12:45:47;97041.69;;;12.39;58.71
20971;BME280;10644;48.834;10.088;2024-02-28T12:48:12;97036.22;;;12.45;57.18
20971;BME280;10644;48.834;10.088;2024-02-28T12:50:40;97039.72;;;12.44;57.09